Lysa Hora, Czech Republic
Current Conditions -  °F | °C
As of 7:38 AM on Tuesday 27 Jan 2015 (Local Time) from LKMT Reporting Station
Moderate Snow Moderate Snow  
Wind Chill: 19°   Ceiling: 1900
Heat Index: 30°   Visibility: 1.8mi
Dew Point: 27°   Wind: 15mph
Humidity: 86%   Direction: 220°SW
Pressure: 29.88"   Gusts: NA
Location:  49.55°N, 18.45°E
Report Text: LKMT 270538Z 22013KT 3000 SN OVC019 M01/M03 Q1012 R04/01//95 RMK REG QNH 1008
Loading
Personal Weather Stations






























Interactive Weather Map New forecast layout! Learn more

10-Day Weather Forecast

Advertisements
Track Severe Weather on mobile